Time;durP1;ratioP1;P1;durP2;ratioP2;P2;SDS_P1;SDS_P2;PMS_P1;PMS_P2;Temp;Humidity;BMP_temperature;BMP_pressure;BME280_temperature;BME280_humidity;BME280_pressure;Samples;Min_cycle;Max_cycle;Signal;HPM_P1;HPM_P2
2022/12/16 00:01:23;;;;;;;33.60;21.73;;;-0.80;99.90;;;;;;5072206;28;20470;-59
2022/12/16 00:03:52;;;;;;;29.47;20.40;;;-0.80;99.90;;;;;;5072600;28;20868;-59
2022/12/16 00:06:24;;;;;;;27.27;20.17;;;-0.70;99.90;;;;;;5074950;28;20466;-59
2022/12/16 00:08:52;;;;;;;27.13;18.83;;;-0.70;99.90;;;;;;5071550;28;20469;-60
2022/12/16 00:11:23;;;;;;;29.57;20.97;;;-0.70;99.90;;;;;;5072477;28;21057;-59
2022/12/16 00:13:51;;;;;;;36.47;22.20;;;-0.70;99.90;;;;;;5072307;28;20480;-60
2022/12/16 00:16:21;;;;;;;30.03;22.33;;;-0.80;99.90;;;;;;5072493;28;20460;-59
2022/12/16 00:18:49;;;;;;;29.10;20.60;;;-0.80;99.90;;;;;;5072242;28;20485;-59
2022/12/16 00:21:19;;;;;;;35.00;22.30;;;-0.80;99.90;;;;;;5072385;28;20465;-59
2022/12/16 00:23:47;;;;;;;31.97;21.67;;;-0.90;99.90;;;;;;5072133;28;20481;-59
2022/12/16 00:26:15;;;;;;;30.27;21.23;;;-0.70;99.90;;;;;;5072620;28;20871;-59
2022/12/16 00:28:45;;;;;;;29.23;20.80;;;-0.70;99.90;;;;;;5072059;28;20473;-59
2022/12/16 00:31:13;;;;;;;30.93;21.50;;;-0.80;99.90;;;;;;5052889;28;21016;-59
2022/12/16 00:33:41;;;;;;;29.00;20.63;;;-0.60;99.90;;;;;;5072148;28;20557;-60
2022/12/16 00:36:10;;;;;;;27.73;20.47;;;-0.60;99.90;;;;;;5068614;28;20458;-59
2022/12/16 00:38:38;;;;;;;29.90;21.73;;;-0.30;99.90;;;;;;5071881;28;20481;-58
2022/12/16 00:41:06;;;;;;;31.20;22.50;;;-0.50;99.90;;;;;;5052433;28;20969;-59
2022/12/16 00:43:35;;;;;;;29.20;20.10;;;-0.60;99.90;;;;;;5052020;28;20958;-59
2022/12/16 00:46:05;;;;;;;29.40;21.30;;;-0.70;99.90;;;;;;5052121;28;20506;-59
2022/12/16 00:48:33;;;;;;;30.00;20.83;;;-0.70;99.90;;;;;;5054219;28;20458;-59
2022/12/16 00:51:01;;;;;;;26.37;19.97;;;-0.60;99.90;;;;;;5055852;28;20503;-59
2022/12/16 00:53:29;;;;;;;30.27;21.47;;;-0.70;99.90;;;;;;5055354;28;20493;-59
2022/12/16 00:56:05;;;;;;;30.07;20.50;;;-0.70;99.90;;;;;;5056023;28;20467;-59
2022/12/16 00:58:33;;;;;;;27.10;19.77;;;-0.30;99.90;;;;;;5070457;28;20484;-59
2022/12/16 01:01:02;;;;;;;33.47;22.93;;;-0.40;99.90;;;;;;5074849;28;20477;-59
2022/12/16 01:03:31;;;;;;;31.80;22.20;;;-0.50;99.90;;;;;;5075491;28;20464;-59
2022/12/16 01:05:59;;;;;;;30.03;20.00;;;-0.60;99.90;;;;;;5078278;28;20470;-59
2022/12/16 01:08:28;;;;;;;29.50;21.57;;;-0.30;99.90;;;;;;5075499;28;20469;-58
2022/12/16 01:10:57;;;;;;;30.37;21.70;;;0.00;99.90;;;;;;5075738;28;20864;-59
2022/12/16 01:13:25;;;;;;;33.10;23.03;;;0.10;99.90;;;;;;5075243;28;20469;-59
2022/12/16 01:15:54;;;;;;;34.83;24.70;;;-0.10;99.90;;;;;;5075645;28;20523;-59
2022/12/16 01:18:22;;;;;;;32.13;24.07;;;-0.30;99.90;;;;;;5075255;28;20844;-59
2022/12/16 01:20:51;;;;;;;33.23;23.83;;;-0.20;99.90;;;;;;5075141;28;20492;-59
2022/12/16 01:23:21;;;;;;;32.13;21.77;;;0.00;99.90;;;;;;5075530;28;20827;-59
2022/12/16 01:25:53;;;;;;;31.83;24.47;;;0.20;99.90;;;;;;5075337;28;20468;-59
2022/12/16 01:28:21;;;;;;;33.87;23.00;;;0.00;99.90;;;;;;5074910;28;20545;-59
2022/12/16 01:30:54;;;;;;;33.87;23.03;;;-0.30;99.90;;;;;;5074588;28;20476;-59
2022/12/16 01:33:22;;;;;;;30.67;23.20;;;-0.30;99.90;;;;;;5074928;28;20458;-59
2022/12/16 01:35:59;;;;;;;30.60;22.00;;;-0.40;99.90;;;;;;5077233;28;20457;-59
2022/12/16 01:38:27;;;;;;;31.77;22.07;;;-0.50;99.90;;;;;;5074937;28;20469;-59
2022/12/16 01:40:55;;;;;;;34.27;23.33;;;-0.40;99.90;;;;;;5074921;28;20452;-59
2022/12/16 01:43:26;;;;;;;33.97;23.90;;;-0.50;99.90;;;;;;5074807;28;20511;-59
2022/12/16 01:45:59;;;;;;;29.60;22.63;;;-0.60;99.90;;;;;;5074764;28;20522;-59
2022/12/16 01:48:42;;;;;;;29.97;19.70;;;-0.50;99.90;;;;;;5074888;28;20470;-59
2022/12/16 01:51:16;;;;;;;36.07;24.90;;;0.00;99.90;;;;;;5074729;28;20472;-59
2022/12/16 01:53:46;;;;;;;33.17;22.30;;;-0.10;99.90;;;;;;5074306;28;20489;-59
2022/12/16 01:56:17;;;;;;;33.83;24.27;;;-0.30;99.90;;;;;;5074905;28;20527;-59
2022/12/16 01:58:45;;;;;;;33.63;22.60;;;-0.40;99.90;;;;;;5073607;28;20481;-59
2022/12/16 02:01:15;;;;;;;35.77;24.57;;;-0.30;99.90;;;;;;5073953;28;21012;-59
2022/12/16 02:03:44;;;;;;;35.40;24.87;;;-0.30;99.90;;;;;;5074238;28;21973;-59
2022/12/16 02:06:13;;;;;;;33.23;23.40;;;-0.40;99.90;;;;;;5072002;28;20534;-59
2022/12/16 02:08:41;;;;;;;35.10;24.80;;;-0.50;99.90;;;;;;5074393;28;20471;-59
2022/12/16 02:11:28;;;;;;;30.77;21.63;;;-0.40;99.90;;;;;;5074662;28;20466;-59
2022/12/16 02:14:12;;;;;;;35.13;23.43;;;-0.10;99.90;;;;;;5074560;28;20461;-59
2022/12/16 02:16:50;;;;;;;28.30;21.13;;;0.00;99.90;;;;;;5074372;28;20538;-60
2022/12/16 02:19:43;;;;;;;35.83;24.27;;;0.00;99.90;;;;;;5074480;28;21057;-59
2022/12/16 02:22:24;;;;;;;36.40;26.30;;;0.20;99.90;;;;;;5073787;28;20485;-59
2022/12/16 02:25:21;;;;;;;36.93;26.23;;;0.00;99.90;;;;;;5073986;28;20482;-59
2022/12/16 02:27:58;;;;;;;35.10;24.93;;;-0.20;99.90;;;;;;5070348;28;20987;-59
2022/12/16 02:30:59;;;;;;;33.07;24.13;;;-0.40;99.90;;;;;;5073598;28;20480;-59
2022/12/16 02:34:02;;;;;;;32.23;23.83;;;-0.40;99.90;;;;;;5073470;28;20526;-59
2022/12/16 02:36:46;;;;;;;31.23;24.47;;;-0.50;99.90;;;;;;5070584;28;20972;-59
2022/12/16 02:39:20;;;;;;;34.13;23.40;;;-0.50;99.90;;;;;;5053905;28;20462;-60
2022/12/16 02:41:53;;;;;;;33.07;22.57;;;-0.50;99.90;;;;;;5053792;28;20961;-59
2022/12/16 02:44:31;;;;;;;31.07;22.43;;;-0.50;99.90;;;;;;5072958;28;20556;-59
2022/12/16 02:47:00;;;;;;;30.90;23.07;;;-0.50;99.90;;;;;;5073746;28;20453;-59
2022/12/16 02:49:49;;;;;;;30.40;22.47;;;-0.50;99.90;;;;;;5073280;28;20469;-58
2022/12/16 02:52:21;;;;;;;34.93;21.80;;;-0.50;99.90;;;;;;5073345;28;20976;-59
2022/12/16 02:54:52;;;;;;;30.33;22.67;;;-0.50;99.90;;;;;;5073483;28;20465;-59
2022/12/16 02:57:45;;;;;;;31.97;22.33;;;-0.50;99.90;;;;;;5073420;28;20863;-59
2022/12/16 03:00:17;;;;;;;30.10;22.13;;;-0.60;99.90;;;;;;5065176;28;20481;-59
2022/12/16 03:02:54;;;;;;;32.20;21.90;;;-0.60;99.90;;;;;;5073313;28;20560;-58
2022/12/16 03:05:26;;;;;;;30.53;22.97;;;-0.50;99.90;;;;;;5075846;28;20903;-59
2022/12/16 03:07:57;;;;;;;30.97;23.43;;;-0.50;99.90;;;;;;5073029;28;20499;-59
2022/12/16 03:10:30;;;;;;;36.80;24.20;;;-0.50;99.90;;;;;;5072738;28;20468;-59
2022/12/16 03:13:01;;;;;;;33.07;23.40;;;-0.50;99.90;;;;;;5073241;28;20864;-59
2022/12/16 03:15:32;;;;;;;34.03;24.07;;;-0.60;99.90;;;;;;5071623;28;20527;-59
2022/12/16 03:18:05;;;;;;;31.77;22.90;;;-0.40;99.90;;;;;;5072988;28;20466;-59
2022/12/16 03:20:36;;;;;;;33.90;24.30;;;-0.30;99.90;;;;;;5072682;28;20484;-59
2022/12/16 03:23:15;;;;;;;34.13;23.97;;;-0.40;99.90;;;;;;5072606;28;20825;-59
2022/12/16 03:25:45;;;;;;;31.30;22.53;;;-0.50;99.90;;;;;;5072556;28;20469;-59
2022/12/16 03:28:26;;;;;;;34.47;23.87;;;-0.50;99.90;;;;;;5073018;28;20462;-59
2022/12/16 03:31:01;;;;;;;35.37;25.33;;;-0.30;99.90;;;;;;5072462;28;20888;-60
2022/12/16 03:33:36;;;;;;;33.97;23.43;;;-0.30;99.90;;;;;;5072505;28;20453;-59
2022/12/16 03:36:10;;;;;;;35.60;25.37;;;-0.40;99.90;;;;;;5085009;28;20477;-59
2022/12/16 03:38:40;;;;;;;31.33;23.50;;;-0.50;99.90;;;;;;5087788;28;20525;-59
2022/12/16 03:41:09;;;;;;;30.10;23.03;;;-0.50;99.90;;;;;;5092362;28;20497;-59
2022/12/16 03:43:38;;;;;;;34.83;24.40;;;-0.50;99.90;;;;;;5092574;28;20974;-59
2022/12/16 03:46:07;;;;;;;33.37;24.10;;;-0.50;99.90;;;;;;5092541;28;20514;-60
2022/12/16 03:48:46;;;;;;;32.10;23.43;;;-0.60;99.90;;;;;;5087977;28;20465;-59
2022/12/16 03:51:14;;;;;;;34.77;24.73;;;-0.60;99.90;;;;;;5092856;28;20510;-57
2022/12/16 03:53:43;;;;;;;30.97;23.87;;;-0.50;99.90;;;;;;5074255;28;20480;-59
2022/12/16 03:56:12;;;;;;;32.63;23.33;;;-0.60;99.90;;;;;;5090006;28;20457;-60
2022/12/16 03:58:40;;;;;;;32.73;24.60;;;-0.40;99.90;;;;;;5090601;28;20457;-59
2022/12/16 04:01:09;;;;;;;31.43;24.23;;;-0.50;99.90;;;;;;5090994;28;20478;-59
2022/12/16 04:03:38;;;;;;;37.70;25.03;;;-0.50;99.90;;;;;;5085811;28;20473;-59
2022/12/16 04:06:07;;;;;;;37.47;26.13;;;-0.50;99.90;;;;;;5089804;28;20987;-59
2022/12/16 04:08:35;;;;;;;37.27;25.73;;;-0.60;99.90;;;;;;5088878;28;20464;-59
2022/12/16 04:25:06;;;;;;;35.67;26.33;;;-0.30;99.90;;;;;;5092465;28;20456;-59
2022/12/16 04:27:35;;;;;;;33.93;24.83;;;-0.40;99.90;;;;;;5089075;28;20459;-59
2022/12/16 04:30:19;;;;;;;33.53;23.10;;;-0.50;99.90;;;;;;5094396;28;20464;-59
